Sibirskiy-2116 — UBXE3 — position and weather

sailwx.info

Track history (hours):
 
Tides and Currents Weather Stations Pressure Air Temp Water Temp Dewpoint Dewpoint Depression Visibility Wind Speed Wind Dir Waves Ship Positions

Sibirskiy-2116

Last reported at 2015-Apr-20 05:33 UTC. Time now 2015-May-03 23:57 UTC.
Position N 44°38' E 035°07'.
Warning: this ship's position is 13 days out of date.

Length 129 m; draft 2.8 m.

Type: Cargo ship. MMSI: 273347320.

Date/timePositionNaut miles runAvg speedWind from/ knotsBaromVisibWave heightAir tempDewpointWater temp
2015-Apr-20 05:33N 44°38' E 035°07'8 7.8
2015-Apr-20 04:33N 44°36' E 034°56'7 7.4
2015-Apr-20 03:33N 44°32' E 034°48'8 7.5
2015-Apr-20 02:33N 44°27' E 034°40'8 7.6
2015-Apr-20 01:33N 44°22' E 034°32'8 7.6
2015-Apr-20 00:33N 44°18' E 034°23'7 7.3
2015-Apr-19 23:33N 44°14' E 034°14'9 7.2
2015-Apr-19 22:21N 44°10' E 034°04'261 7.0
2015-Apr-18 09:09N 41°25' E 029°27'37 1.3
2015-Apr-17 04:33N 40°58' E 028°54'3 2.3
2015-Apr-17 03:25N 40°56' E 028°57'6 6.4
2015-Apr-17 02:32N 40°52' E 028°53'  
2015-Apr-12 06:25N 38°26' E 013°21'  
Track history (hours):
 
Tides and Currents Weather Stations Pressure Air Temp Water Temp Dewpoint Dewpoint Depression Visibility Wind Speed Wind Dir Waves Ship Positions

Sibirskiy-2116

Last reported at 2015-Apr-20 05:33 UTC. Time now 2015-May-03 23:57 UTC.
Position N 44°38' E 035°07'.
Warning: this ship's position is 13 days out of date.

Length 129 m; draft 2.8 m.

Type: Cargo ship. MMSI: 273347320.

Date/timePositionNaut miles runAvg speedWind from/ knotsBaromVisibWave heightAir tempDewpointWater temp
2015-Apr-20 05:33N 44°38' E 035°07'8 7.8
2015-Apr-20 04:33N 44°36' E 034°56'7 7.4
2015-Apr-20 03:33N 44°32' E 034°48'8 7.5
2015-Apr-20 02:33N 44°27' E 034°40'8 7.6
2015-Apr-20 01:33N 44°22' E 034°32'8 7.6
2015-Apr-20 00:33N 44°18' E 034°23'7 7.3
2015-Apr-19 23:33N 44°14' E 034°14'9 7.2
2015-Apr-19 22:21N 44°10' E 034°04'261 7.0
2015-Apr-18 09:09N 41°25' E 029°27'37 1.3
2015-Apr-17 04:33N 40°58' E 028°54'3 2.3
2015-Apr-17 03:25N 40°56' E 028°57'6 6.4
2015-Apr-17 02:32N 40°52' E 028°53'  
2015-Apr-12 06:25N 38°26' E 013°21'  

Dump ship's entire track history